sensor_id;sensor_type;location;lat;lon;timestamp;P1;durP1;ratioP1;P2;durP2;ratioP2
22673;SDS011;11504;43.334;21.918;2022-07-22T00:02:39;14.0;;;13.0;;
22673;SDS011;11504;43.334;21.918;2022-07-22T00:07:17;13.0;;;12.0;;
22673;SDS011;11504;43.334;21.918;2022-07-22T00:11:55;13.0;;;12.0;;
22673;SDS011;11504;43.334;21.918;2022-07-22T00:16:32;14.0;;;12.0;;
22673;SDS011;11504;43.334;21.918;2022-07-22T00:21:09;14.0;;;12.0;;
22673;SDS011;11504;43.334;21.918;2022-07-22T00:25:46;14.0;;;13.0;;
22673;SDS011;11504;43.334;21.918;2022-07-22T00:30:23;14.0;;;13.0;;
22673;SDS011;11504;43.334;21.918;2022-07-22T00:35:00;14.0;;;13.0;;
22673;SDS011;11504;43.334;21.918;2022-07-22T00:39:40;14.0;;;13.0;;
22673;SDS011;11504;43.334;21.918;2022-07-22T00:44:17;13.0;;;13.0;;
22673;SDS011;11504;43.334;21.918;2022-07-22T00:48:56;13.0;;;13.0;;
22673;SDS011;11504;43.334;21.918;2022-07-22T00:53:37;14.0;;;13.0;;
22673;SDS011;11504;43.334;21.918;2022-07-22T00:58:15;14.0;;;13.0;;
22673;SDS011;11504;43.334;21.918;2022-07-22T01:02:52;14.0;;;13.0;;
22673;SDS011;11504;43.334;21.918;2022-07-22T01:07:30;14.0;;;13.0;;
22673;SDS011;11504;43.334;21.918;2022-07-22T01:12:08;14.0;;;13.0;;
22673;SDS011;11504;43.334;21.918;2022-07-22T01:16:48;14.0;;;13.0;;
22673;SDS011;11504;43.334;21.918;2022-07-22T01:21:27;14.0;;;13.0;;
22673;SDS011;11504;43.334;21.918;2022-07-22T01:26:07;13.0;;;13.0;;
22673;SDS011;11504;43.334;21.918;2022-07-22T01:30:47;13.0;;;13.0;;
22673;SDS011;11504;43.334;21.918;2022-07-22T01:35:27;13.0;;;12.0;;
22673;SDS011;11504;43.334;21.918;2022-07-22T01:40:06;13.0;;;12.0;;
22673;SDS011;11504;43.334;21.918;2022-07-22T01:44:48;13.0;;;12.0;;
22673;SDS011;11504;43.334;21.918;2022-07-22T01:49:29;13.0;;;12.0;;
22673;SDS011;11504;43.334;21.918;2022-07-22T01:54:07;14.0;;;13.0;;
22673;SDS011;11504;43.334;21.918;2022-07-22T01:58:45;14.0;;;13.0;;
22673;SDS011;11504;43.334;21.918;2022-07-22T02:03:24;14.0;;;13.0;;
22673;SDS011;11504;43.334;21.918;2022-07-22T02:08:06;15.0;;;14.0;;
22673;SDS011;11504;43.334;21.918;2022-07-22T02:12:47;15.0;;;14.0;;
22673;SDS011;11504;43.334;21.918;2022-07-22T02:17:26;16.0;;;14.0;;
22673;SDS011;11504;43.334;21.918;2022-07-22T02:22:05;16.0;;;14.0;;
22673;SDS011;11504;43.334;21.918;2022-07-22T02:26:45;16.0;;;15.0;;
22673;SDS011;11504;43.334;21.918;2022-07-22T02:31:23;16.0;;;15.0;;
22673;SDS011;11504;43.334;21.918;2022-07-22T02:36:00;16.0;;;16.0;;
22673;SDS011;11504;43.334;21.918;2022-07-22T02:40:41;16.0;;;16.0;;
22673;SDS011;11504;43.334;21.918;2022-07-22T02:45:18;17.0;;;16.0;;
22673;SDS011;11504;43.334;21.918;2022-07-22T02:49:56;17.0;;;16.0;;
22673;SDS011;11504;43.334;21.918;2022-07-22T02:54:33;15.0;;;14.0;;
22673;SDS011;11504;43.334;21.918;2022-07-22T02:59:10;15.0;;;14.0;;
22673;SDS011;11504;43.334;21.918;2022-07-22T03:03:47;13.0;;;13.0;;
22673;SDS011;11504;43.334;21.918;2022-07-22T03:08:24;13.0;;;13.0;;
22673;SDS011;11504;43.334;21.918;2022-07-22T03:13:02;13.0;;;13.0;;
22673;SDS011;11504;43.334;21.918;2022-07-22T03:17:39;14.0;;;14.0;;
22673;SDS011;11504;43.334;21.918;2022-07-22T03:22:17;14.0;;;14.0;;
22673;SDS011;11504;43.334;21.918;2022-07-22T03:26:54;16.0;;;15.0;;
22673;SDS011;11504;43.334;21.918;2022-07-22T03:31:31;16.0;;;15.0;;
22673;SDS011;11504;43.334;21.918;2022-07-22T03:36:08;16.0;;;14.0;;
22673;SDS011;11504;43.334;21.918;2022-07-22T03:40:46;16.0;;;14.0;;
22673;SDS011;11504;43.334;21.918;2022-07-22T03:45:23;15.0;;;14.0;;
22673;SDS011;11504;43.334;21.918;2022-07-22T03:50:01;15.0;;;14.0;;
22673;SDS011;11504;43.334;21.918;2022-07-22T03:54:44;14.0;;;14.0;;
22673;SDS011;11504;43.334;21.918;2022-07-22T03:59:22;14.0;;;14.0;;
22673;SDS011;11504;43.334;21.918;2022-07-22T04:04:00;14.0;;;13.0;;
22673;SDS011;11504;43.334;21.918;2022-07-22T04:08:39;14.0;;;13.0;;
22673;SDS011;11504;43.334;21.918;2022-07-22T04:13:18;14.0;;;13.0;;
22673;SDS011;11504;43.334;21.918;2022-07-22T04:17:56;14.0;;;12.0;;
22673;SDS011;11504;43.334;21.918;2022-07-22T04:22:34;14.0;;;12.0;;
22673;SDS011;11504;43.334;21.918;2022-07-22T04:27:11;13.0;;;12.0;;
22673;SDS011;11504;43.334;21.918;2022-07-22T04:31:49;13.0;;;12.0;;
22673;SDS011;11504;43.334;21.918;2022-07-22T04:36:27;13.0;;;12.0;;
22673;SDS011;11504;43.334;21.918;2022-07-22T04:41:06;13.0;;;12.0;;
22673;SDS011;11504;43.334;21.918;2022-07-22T04:45:44;13.0;;;12.0;;
22673;SDS011;11504;43.334;21.918;2022-07-22T04:50:22;13.0;;;12.0;;
22673;SDS011;11504;43.334;21.918;2022-07-22T04:55:01;12.0;;;12.0;;
22673;SDS011;11504;43.334;21.918;2022-07-22T04:59:43;12.0;;;12.0;;
22673;SDS011;11504;43.334;21.918;2022-07-22T05:04:21;12.0;;;12.0;;
22673;SDS011;11504;43.334;21.918;2022-07-22T05:08:58;12.0;;;12.0;;
22673;SDS011;11504;43.334;21.918;2022-07-22T05:13:36;12.0;;;12.0;;
22673;SDS011;11504;43.334;21.918;2022-07-22T05:18:14;12.0;;;12.0;;
22673;SDS011;11504;43.334;21.918;2022-07-22T05:22:52;12.0;;;12.0;;
22673;SDS011;11504;43.334;21.918;2022-07-22T05:27:29;13.0;;;12.0;;
22673;SDS011;11504;43.334;21.918;2022-07-22T05:32:07;13.0;;;12.0;;
22673;SDS011;11504;43.334;21.918;2022-07-22T05:36:44;15.0;;;14.0;;
22673;SDS011;11504;43.334;21.918;2022-07-22T05:41:21;15.0;;;14.0;;
22673;SDS011;11504;43.334;21.918;2022-07-22T05:45:59;17.0;;;16.0;;
22673;SDS011;11504;43.334;21.918;2022-07-22T05:50:36;17.0;;;16.0;;
22673;SDS011;11504;43.334;21.918;2022-07-22T05:55:13;18.0;;;16.0;;
22673;SDS011;11504;43.334;21.918;2022-07-22T05:59:49;18.0;;;16.0;;
22673;SDS011;11504;43.334;21.918;2022-07-22T06:04:26;18.0;;;17.0;;
22673;SDS011;11504;43.334;21.918;2022-07-22T06:09:04;18.0;;;17.0;;
22673;SDS011;11504;43.334;21.918;2022-07-22T06:13:41;18.0;;;17.0;;
22673;SDS011;11504;43.334;21.918;2022-07-22T06:18:19;16.0;;;15.0;;
22673;SDS011;11504;43.334;21.918;2022-07-22T06:22:56;16.0;;;15.0;;
22673;SDS011;11504;43.334;21.918;2022-07-22T06:27:33;14.0;;;13.0;;
22673;SDS011;11504;43.334;21.918;2022-07-22T06:32:11;14.0;;;13.0;;
22673;SDS011;11504;43.334;21.918;2022-07-22T06:36:49;14.0;;;13.0;;
22673;SDS011;11504;43.334;21.918;2022-07-22T06:41:27;14.0;;;13.0;;
22673;SDS011;11504;43.334;21.918;2022-07-22T06:46:05;14.0;;;13.0;;
22673;SDS011;11504;43.334;21.918;2022-07-22T06:50:43;14.0;;;13.0;;
22673;SDS011;11504;43.334;21.918;2022-07-22T06:55:22;14.0;;;13.0;;
22673;SDS011;11504;43.334;21.918;2022-07-22T07:00:03;14.0;;;13.0;;
22673;SDS011;11504;43.334;21.918;2022-07-22T07:04:50;14.0;;;13.0;;
22673;SDS011;11504;43.334;21.918;2022-07-22T07:09:28;14.0;;;13.0;;
22673;SDS011;11504;43.334;21.918;2022-07-22T07:14:06;15.0;;;14.0;;
22673;SDS011;11504;43.334;21.918;2022-07-22T07:18:44;15.0;;;14.0;;
22673;SDS011;11504;43.334;21.918;2022-07-22T07:23:23;15.0;;;14.0;;
22673;SDS011;11504;43.334;21.918;2022-07-22T07:28:01;16.0;;;15.0;;
22673;SDS011;11504;43.334;21.918;2022-07-22T07:32:42;16.0;;;15.0;;
22673;SDS011;11504;43.334;21.918;2022-07-22T07:37:21;16.0;;;15.0;;
22673;SDS011;11504;43.334;21.918;2022-07-22T07:42:00;16.0;;;15.0;;
22673;SDS011;11504;43.334;21.918;2022-07-22T07:46:38;16.0;;;15.0;;
22673;SDS011;11504;43.334;21.918;2022-07-22T07:51:16;16.0;;;15.0;;
22673;SDS011;11504;43.334;21.918;2022-07-22T07:55:54;16.0;;;16.0;;
22673;SDS011;11504;43.334;21.918;2022-07-22T08:00:32;16.0;;;16.0;;
22673;SDS011;11504;43.334;21.918;2022-07-22T08:05:12;17.0;;;16.0;;
22673;SDS011;11504;43.334;21.918;2022-07-22T08:09:50;17.0;;;16.0;;
22673;SDS011;11504;43.334;21.918;2022-07-22T08:14:28;17.0;;;16.0;;
22673;SDS011;11504;43.334;21.918;2022-07-22T08:19:05;17.0;;;16.0;;
22673;SDS011;11504;43.334;21.918;2022-07-22T08:23:42;17.0;;;16.0;;
22673;SDS011;11504;43.334;21.918;2022-07-22T08:28:19;17.0;;;16.0;;
22673;SDS011;11504;43.334;21.918;2022-07-22T08:32:56;17.0;;;16.0;;
22673;SDS011;11504;43.334;21.918;2022-07-22T08:37:35;16.0;;;16.0;;
22673;SDS011;11504;43.334;21.918;2022-07-22T08:42:14;16.0;;;16.0;;
22673;SDS011;11504;43.334;21.918;2022-07-22T08:46:51;16.0;;;15.0;;
22673;SDS011;11504;43.334;21.918;2022-07-22T08:51:28;16.0;;;15.0;;
22673;SDS011;11504;43.334;21.918;2022-07-22T08:56:07;15.0;;;14.0;;
22673;SDS011;11504;43.334;21.918;2022-07-22T09:01:05;15.0;;;14.0;;
22673;SDS011;11504;43.334;21.918;2022-07-22T09:05:53;14.0;;;14.0;;
22673;SDS011;11504;43.334;21.918;2022-07-22T09:10:34;14.0;;;14.0;;
22673;SDS011;11504;43.334;21.918;2022-07-22T09:15:14;14.0;;;14.0;;
22673;SDS011;11504;43.334;21.918;2022-07-22T09:20:17;14.0;;;14.0;;
22673;SDS011;11504;43.334;21.918;2022-07-22T09:24:59;14.0;;;13.0;;
22673;SDS011;11504;43.334;21.918;2022-07-22T09:30:12;14.0;;;13.0;;
22673;SDS011;11504;43.334;21.918;2022-07-22T09:35:04;13.0;;;12.0;;
22673;SDS011;11504;43.334;21.918;2022-07-22T09:39:48;13.0;;;12.0;;
22673;SDS011;11504;43.334;21.918;2022-07-22T09:44:26;12.0;;;12.0;;
22673;SDS011;11504;43.334;21.918;2022-07-22T09:49:05;12.0;;;12.0;;
22673;SDS011;11504;43.334;21.918;2022-07-22T09:53:43;12.0;;;12.0;;
22673;SDS011;11504;43.334;21.918;2022-07-22T09:58:26;12.0;;;12.0;;
22673;SDS011;11504;43.334;21.918;2022-07-22T10:03:10;12.0;;;12.0;;
22673;SDS011;11504;43.334;21.918;2022-07-22T10:08:10;11.0;;;11.0;;
22673;SDS011;11504;43.334;21.918;2022-07-22T10:12:51;11.0;;;11.0;;
22673;SDS011;11504;43.334;21.918;2022-07-22T10:17:45;10.0;;;10.0;;
22673;SDS011;11504;43.334;21.918;2022-07-22T10:22:54;10.0;;;10.0;;
22673;SDS011;11504;43.334;21.918;2022-07-22T10:27:44;10.0;;;9.0;;
22673;SDS011;11504;43.334;21.918;2022-07-22T10:32:29;10.0;;;9.0;;
22673;SDS011;11504;43.334;21.918;2022-07-22T10:37:37;10.0;;;9.0;;
22673;SDS011;11504;43.334;21.918;2022-07-22T10:42:17;10.0;;;9.0;;
22673;SDS011;11504;43.334;21.918;2022-07-22T10:46:55;10.0;;;9.0;;
22673;SDS011;11504;43.334;21.918;2022-07-22T10:51:32;10.0;;;9.0;;
22673;SDS011;11504;43.334;21.918;2022-07-22T10:56:16;10.0;;;9.0;;
22673;SDS011;11504;43.334;21.918;2022-07-22T11:01:05;10.0;;;9.0;;
22673;SDS011;11504;43.334;21.918;2022-07-22T11:05:49;9.0;;;9.0;;
22673;SDS011;11504;43.334;21.918;2022-07-22T11:10:26;9.0;;;9.0;;
22673;SDS011;11504;43.334;21.918;2022-07-22T11:15:05;10.0;;;10.0;;
22673;SDS011;11504;43.334;21.918;2022-07-22T11:19:51;10.0;;;10.0;;
22673;SDS011;11504;43.334;21.918;2022-07-22T11:24:28;11.0;;;10.0;;
22673;SDS011;11504;43.334;21.918;2022-07-22T11:29:09;11.0;;;10.0;;
22673;SDS011;11504;43.334;21.918;2022-07-22T11:34:09;12.0;;;10.0;;
22673;SDS011;11504;43.334;21.918;2022-07-22T11:38:54;12.0;;;10.0;;
22673;SDS011;11504;43.334;21.918;2022-07-22T11:43:39;12.0;;;10.0;;
22673;SDS011;11504;43.334;21.918;2022-07-22T11:48:24;12.0;;;11.0;;
22673;SDS011;11504;43.334;21.918;2022-07-22T11:53:02;12.0;;;11.0;;
22673;SDS011;11504;43.334;21.918;2022-07-22T11:57:46;12.0;;;10.0;;
22673;SDS011;11504;43.334;21.918;2022-07-22T12:02:24;12.0;;;10.0;;
22673;SDS011;11504;43.334;21.918;2022-07-22T12:07:04;11.0;;;10.0;;
22673;SDS011;11504;43.334;21.918;2022-07-22T12:11:52;11.0;;;10.0;;
22673;SDS011;11504;43.334;21.918;2022-07-22T12:16:37;11.0;;;10.0;;
22673;SDS011;11504;43.334;21.918;2022-07-22T12:21:50;11.0;;;10.0;;
22673;SDS011;11504;43.334;21.918;2022-07-22T12:26:46;11.0;;;10.0;;
22673;SDS011;11504;43.334;21.918;2022-07-22T12:31:25;11.0;;;10.0;;
22673;SDS011;11504;43.334;21.918;2022-07-22T12:36:06;10.0;;;10.0;;
22673;SDS011;11504;43.334;21.918;2022-07-22T12:40:44;10.0;;;10.0;;
22673;SDS011;11504;43.334;21.918;2022-07-22T12:45:21;10.0;;;10.0;;
22673;SDS011;11504;43.334;21.918;2022-07-22T12:50:17;10.0;;;10.0;;
22673;SDS011;11504;43.334;21.918;2022-07-22T12:55:09;12.0;;;11.0;;
22673;SDS011;11504;43.334;21.918;2022-07-22T12:59:51;12.0;;;11.0;;
22673;SDS011;11504;43.334;21.918;2022-07-22T13:04:28;13.0;;;12.0;;
22673;SDS011;11504;43.334;21.918;2022-07-22T13:09:06;13.0;;;12.0;;
22673;SDS011;11504;43.334;21.918;2022-07-22T13:13:42;13.0;;;12.0;;
22673;SDS011;11504;43.334;21.918;2022-07-22T13:18:19;11.0;;;10.0;;
22673;SDS011;11504;43.334;21.918;2022-07-22T13:22:57;11.0;;;10.0;;
22673;SDS011;11504;43.334;21.918;2022-07-22T13:27:35;9.0;;;9.0;;
22673;SDS011;11504;43.334;21.918;2022-07-22T13:32:12;9.0;;;9.0;;
22673;SDS011;11504;43.334;21.918;2022-07-22T13:36:48;10.0;;;9.0;;
22673;SDS011;11504;43.334;21.918;2022-07-22T13:41:24;10.0;;;9.0;;
22673;SDS011;11504;43.334;21.918;2022-07-22T13:46:01;10.0;;;9.0;;
22673;SDS011;11504;43.334;21.918;2022-07-22T13:50:38;10.0;;;9.0;;
22673;SDS011;11504;43.334;21.918;2022-07-22T13:55:15;10.0;;;10.0;;
22673;SDS011;11504;43.334;21.918;2022-07-22T13:59:51;10.0;;;10.0;;
22673;SDS011;11504;43.334;21.918;2022-07-22T14:04:28;11.0;;;10.0;;
22673;SDS011;11504;43.334;21.918;2022-07-22T14:09:05;11.0;;;10.0;;
22673;SDS011;11504;43.334;21.918;2022-07-22T14:13:42;11.0;;;10.0;;
22673;SDS011;11504;43.334;21.918;2022-07-22T14:18:19;10.0;;;10.0;;
22673;SDS011;11504;43.334;21.918;2022-07-22T14:22:56;10.0;;;10.0;;
22673;SDS011;11504;43.334;21.918;2022-07-22T14:27:33;9.0;;;9.0;;
22673;SDS011;11504;43.334;21.918;2022-07-22T14:32:10;9.0;;;9.0;;
22673;SDS011;11504;43.334;21.918;2022-07-22T14:36:47;9.0;;;9.0;;
22673;SDS011;11504;43.334;21.918;2022-07-22T14:41:25;9.0;;;9.0;;
22673;SDS011;11504;43.334;21.918;2022-07-22T14:46:03;9.0;;;9.0;;
22673;SDS011;11504;43.334;21.918;2022-07-22T14:50:42;9.0;;;9.0;;
22673;SDS011;11504;43.334;21.918;2022-07-22T14:55:19;10.0;;;10.0;;
22673;SDS011;11504;43.334;21.918;2022-07-22T14:59:56;10.0;;;10.0;;
22673;SDS011;11504;43.334;21.918;2022-07-22T15:04:33;10.0;;;10.0;;
22673;SDS011;11504;43.334;21.918;2022-07-22T15:09:10;10.0;;;10.0;;
22673;SDS011;11504;43.334;21.918;2022-07-22T15:13:47;10.0;;;10.0;;
22673;SDS011;11504;43.334;21.918;2022-07-22T15:18:25;9.0;;;8.0;;
22673;SDS011;11504;43.334;21.918;2022-07-22T15:23:03;9.0;;;8.0;;
22673;SDS011;11504;43.334;21.918;2022-07-22T15:27:41;8.0;;;7.0;;
22673;SDS011;11504;43.334;21.918;2022-07-22T15:32:18;8.0;;;7.0;;
22673;SDS011;11504;43.334;21.918;2022-07-22T15:36:55;8.0;;;7.0;;
22673;SDS011;11504;43.334;21.918;2022-07-22T15:41:32;8.0;;;7.0;;
22673;SDS011;11504;43.334;21.918;2022-07-22T15:46:09;9.0;;;7.0;;
22673;SDS011;11504;43.334;21.918;2022-07-22T15:50:46;9.0;;;7.0;;
22673;SDS011;11504;43.334;21.918;2022-07-22T15:55:24;8.0;;;8.0;;
22673;SDS011;11504;43.334;21.918;2022-07-22T16:00:04;8.0;;;8.0;;
22673;SDS011;11504;43.334;21.918;2022-07-22T16:04:45;8.0;;;8.0;;
22673;SDS011;11504;43.334;21.918;2022-07-22T16:09:22;8.0;;;8.0;;
22673;SDS011;11504;43.334;21.918;2022-07-22T16:13:58;8.0;;;8.0;;
22673;SDS011;11504;43.334;21.918;2022-07-22T16:18:34;8.0;;;8.0;;
22673;SDS011;11504;43.334;21.918;2022-07-22T16:23:10;8.0;;;8.0;;
22673;SDS011;11504;43.334;21.918;2022-07-22T16:27:47;8.0;;;7.0;;
22673;SDS011;11504;43.334;21.918;2022-07-22T16:32:23;8.0;;;7.0;;
22673;SDS011;11504;43.334;21.918;2022-07-22T16:37:00;8.0;;;8.0;;
22673;SDS011;11504;43.334;21.918;2022-07-22T16:41:37;8.0;;;8.0;;
22673;SDS011;11504;43.334;21.918;2022-07-22T16:46:13;9.0;;;8.0;;
22673;SDS011;11504;43.334;21.918;2022-07-22T16:50:50;9.0;;;8.0;;
22673;SDS011;11504;43.334;21.918;2022-07-22T16:55:26;10.0;;;10.0;;
22673;SDS011;11504;43.334;21.918;2022-07-22T17:00:03;10.0;;;10.0;;
22673;SDS011;11504;43.334;21.918;2022-07-22T17:04:46;11.0;;;11.0;;
22673;SDS011;11504;43.334;21.918;2022-07-22T17:09:23;11.0;;;11.0;;
22673;SDS011;11504;43.334;21.918;2022-07-22T17:14:00;11.0;;;11.0;;
22673;SDS011;11504;43.334;21.918;2022-07-22T17:18:37;11.0;;;10.0;;
22673;SDS011;11504;43.334;21.918;2022-07-22T17:23:15;11.0;;;10.0;;
22673;SDS011;11504;43.334;21.918;2022-07-22T17:27:52;11.0;;;10.0;;
22673;SDS011;11504;43.334;21.918;2022-07-22T17:32:30;11.0;;;10.0;;
22673;SDS011;11504;43.334;21.918;2022-07-22T17:37:07;11.0;;;10.0;;
22673;SDS011;11504;43.334;21.918;2022-07-22T17:41:44;11.0;;;10.0;;
22673;SDS011;11504;43.334;21.918;2022-07-22T17:46:22;11.0;;;10.0;;
22673;SDS011;11504;43.334;21.918;2022-07-22T17:51:00;11.0;;;10.0;;
22673;SDS011;11504;43.334;21.918;2022-07-22T17:55:38;12.0;;;11.0;;
22673;SDS011;11504;43.334;21.918;2022-07-22T18:00:16;12.0;;;11.0;;
22673;SDS011;11504;43.334;21.918;2022-07-22T18:04:53;13.0;;;12.0;;
22673;SDS011;11504;43.334;21.918;2022-07-22T18:09:30;13.0;;;12.0;;
22673;SDS011;11504;43.334;21.918;2022-07-22T18:14:08;13.0;;;12.0;;
22673;SDS011;11504;43.334;21.918;2022-07-22T18:18:45;12.0;;;11.0;;
22673;SDS011;11504;43.334;21.918;2022-07-22T18:23:23;12.0;;;11.0;;
22673;SDS011;11504;43.334;21.918;2022-07-22T18:27:59;11.0;;;10.0;;
22673;SDS011;11504;43.334;21.918;2022-07-22T18:32:36;11.0;;;10.0;;
22673;SDS011;11504;43.334;21.918;2022-07-22T18:37:12;11.0;;;10.0;;
22673;SDS011;11504;43.334;21.918;2022-07-22T18:41:49;11.0;;;10.0;;
22673;SDS011;11504;43.334;21.918;2022-07-22T18:46:25;11.0;;;11.0;;
22673;SDS011;11504;43.334;21.918;2022-07-22T18:51:02;11.0;;;11.0;;
22673;SDS011;11504;43.334;21.918;2022-07-22T18:55:40;12.0;;;12.0;;
22673;SDS011;11504;43.334;21.918;2022-07-22T19:00:16;12.0;;;12.0;;
22673;SDS011;11504;43.334;21.918;2022-07-22T19:04:53;13.0;;;12.0;;
22673;SDS011;11504;43.334;21.918;2022-07-22T19:09:29;13.0;;;12.0;;
22673;SDS011;11504;43.334;21.918;2022-07-22T19:14:06;13.0;;;12.0;;
22673;SDS011;11504;43.334;21.918;2022-07-22T19:18:42;14.0;;;13.0;;
22673;SDS011;11504;43.334;21.918;2022-07-22T19:23:19;14.0;;;13.0;;
22673;SDS011;11504;43.334;21.918;2022-07-22T19:27:56;15.0;;;14.0;;
22673;SDS011;11504;43.334;21.918;2022-07-22T19:32:32;15.0;;;14.0;;
22673;SDS011;11504;43.334;21.918;2022-07-22T19:37:09;14.0;;;12.0;;
22673;SDS011;11504;43.334;21.918;2022-07-22T19:41:46;14.0;;;12.0;;
22673;SDS011;11504;43.334;21.918;2022-07-22T19:46:23;13.0;;;11.0;;
22673;SDS011;11504;43.334;21.918;2022-07-22T19:50:59;13.0;;;11.0;;
22673;SDS011;11504;43.334;21.918;2022-07-22T19:55:37;13.0;;;10.0;;
22673;SDS011;11504;43.334;21.918;2022-07-22T20:00:15;13.0;;;10.0;;
22673;SDS011;11504;43.334;21.918;2022-07-22T20:04:53;13.0;;;10.0;;
22673;SDS011;11504;43.334;21.918;2022-07-22T20:09:30;13.0;;;10.0;;
22673;SDS011;11504;43.334;21.918;2022-07-22T20:14:07;13.0;;;10.0;;
22673;SDS011;11504;43.334;21.918;2022-07-22T20:18:44;12.0;;;10.0;;
22673;SDS011;11504;43.334;21.918;2022-07-22T20:23:21;12.0;;;10.0;;
22673;SDS011;11504;43.334;21.918;2022-07-22T20:27:58;11.0;;;10.0;;
22673;SDS011;11504;43.334;21.918;2022-07-22T20:32:34;11.0;;;10.0;;
22673;SDS011;11504;43.334;21.918;2022-07-22T20:37:14;12.0;;;10.0;;
22673;SDS011;11504;43.334;21.918;2022-07-22T20:41:51;12.0;;;10.0;;
22673;SDS011;11504;43.334;21.918;2022-07-22T20:46:28;12.0;;;10.0;;
22673;SDS011;11504;43.334;21.918;2022-07-22T20:51:06;12.0;;;10.0;;
22673;SDS011;11504;43.334;21.918;2022-07-22T20:55:44;11.0;;;10.0;;
22673;SDS011;11504;43.334;21.918;2022-07-22T21:00:22;11.0;;;10.0;;
22673;SDS011;11504;43.334;21.918;2022-07-22T21:04:59;10.0;;;9.0;;
22673;SDS011;11504;43.334;21.918;2022-07-22T21:09:36;10.0;;;9.0;;
22673;SDS011;11504;43.334;21.918;2022-07-22T21:14:13;10.0;;;9.0;;
22673;SDS011;11504;43.334;21.918;2022-07-22T21:18:50;10.0;;;9.0;;
22673;SDS011;11504;43.334;21.918;2022-07-22T21:23:27;10.0;;;9.0;;
22673;SDS011;11504;43.334;21.918;2022-07-22T21:28:03;10.0;;;9.0;;
22673;SDS011;11504;43.334;21.918;2022-07-22T21:32:41;10.0;;;9.0;;
22673;SDS011;11504;43.334;21.918;2022-07-22T21:37:20;10.0;;;8.0;;
22673;SDS011;11504;43.334;21.918;2022-07-22T21:41:56;10.0;;;8.0;;
22673;SDS011;11504;43.334;21.918;2022-07-22T21:46:32;9.0;;;8.0;;
22673;SDS011;11504;43.334;21.918;2022-07-22T21:51:08;9.0;;;8.0;;
22673;SDS011;11504;43.334;21.918;2022-07-22T21:55:44;10.0;;;9.0;;
22673;SDS011;11504;43.334;21.918;2022-07-22T22:00:21;10.0;;;9.0;;
22673;SDS011;11504;43.334;21.918;2022-07-22T22:04:57;11.0;;;10.0;;
22673;SDS011;11504;43.334;21.918;2022-07-22T22:09:33;11.0;;;10.0;;
22673;SDS011;11504;43.334;21.918;2022-07-22T22:14:10;11.0;;;10.0;;
22673;SDS011;11504;43.334;21.918;2022-07-22T22:18:51;13.0;;;12.0;;
22673;SDS011;11504;43.334;21.918;2022-07-22T22:23:27;13.0;;;12.0;;
22673;SDS011;11504;43.334;21.918;2022-07-22T22:28:04;15.0;;;14.0;;
22673;SDS011;11504;43.334;21.918;2022-07-22T22:32:40;15.0;;;14.0;;
22673;SDS011;11504;43.334;21.918;2022-07-22T22:37:18;21.0;;;20.0;;
22673;SDS011;11504;43.334;21.918;2022-07-22T22:41:54;21.0;;;20.0;;
22673;SDS011;11504;43.334;21.918;2022-07-22T22:46:31;27.0;;;26.0;;
22673;SDS011;11504;43.334;21.918;2022-07-22T22:51:09;27.0;;;26.0;;
22673;SDS011;11504;43.334;21.918;2022-07-22T22:55:47;19.0;;;18.0;;
22673;SDS011;11504;43.334;21.918;2022-07-22T23:00:25;19.0;;;18.0;;
22673;SDS011;11504;43.334;21.918;2022-07-22T23:05:03;11.0;;;11.0;;
22673;SDS011;11504;43.334;21.918;2022-07-22T23:09:45;11.0;;;11.0;;
22673;SDS011;11504;43.334;21.918;2022-07-22T23:14:22;11.0;;;11.0;;
22673;SDS011;11504;43.334;21.918;2022-07-22T23:18:59;10.0;;;10.0;;
22673;SDS011;11504;43.334;21.918;2022-07-22T23:23:36;10.0;;;10.0;;
22673;SDS011;11504;43.334;21.918;2022-07-22T23:28:13;10.0;;;9.0;;
22673;SDS011;11504;43.334;21.918;2022-07-22T23:32:52;10.0;;;9.0;;
22673;SDS011;11504;43.334;21.918;2022-07-22T23:37:29;20.0;;;17.0;;
22673;SDS011;11504;43.334;21.918;2022-07-22T23:42:06;20.0;;;17.0;;
22673;SDS011;11504;43.334;21.918;2022-07-22T23:46:44;29.0;;;25.0;;
22673;SDS011;11504;43.334;21.918;2022-07-22T23:51:20;29.0;;;25.0;;
22673;SDS011;11504;43.334;21.918;2022-07-22T23:55:57;20.0;;;18.0;;
